createdAt,value
2023-03-23T15:59:58.918Z,4.47
2023-03-23T16:02:26.388Z,5.00
2023-03-23T16:04:53.124Z,4.27
2023-03-23T16:07:23.862Z,4.57
2023-03-23T16:09:50.419Z,4.67
2023-03-23T16:12:17.957Z,4.47
2023-03-23T16:14:44.449Z,4.87
2023-03-23T16:17:15.994Z,5.20
2023-03-23T16:19:42.517Z,35.43
2023-03-23T16:22:09.989Z,61.07
2023-03-23T16:24:36.667Z,29.13
2023-03-23T16:27:03.187Z,14.43
2023-03-23T16:32:01.445Z,8.47
2023-03-23T16:34:30.292Z,6.20
2023-03-23T16:36:56.934Z,11.77
2023-03-23T16:39:23.463Z,16.57
2023-03-23T16:41:50.052Z,8.57
2023-03-23T16:44:16.743Z,10.87
2023-03-23T16:46:43.667Z,11.20
2023-03-23T16:49:10.352Z,6.07
2023-03-23T16:51:37.104Z,8.40
2023-03-23T16:54:03.967Z,6.97
2023-03-23T16:56:30.910Z,10.17
2023-03-23T16:58:57.567Z,5.63
2023-03-23T17:01:24.164Z,4.70
2023-03-23T17:03:50.741Z,11.87
2023-03-23T17:06:17.410Z,13.17
2023-03-23T17:08:44.105Z,7.37
2023-03-23T17:11:11.332Z,4.83
2023-03-23T17:13:38.154Z,7.07
2023-03-23T17:16:05.141Z,31.30
2023-03-23T17:18:32.117Z,18.30
2023-03-23T17:20:58.616Z,37.90
2023-03-23T17:23:25.177Z,26.33
2023-03-23T17:25:52.025Z,28.90
2023-03-23T17:28:20.401Z,15.93
2023-03-23T17:30:47.551Z,9.13
2023-03-23T17:33:14.339Z,12.93
2023-03-23T17:35:42.109Z,5.40
2023-03-23T17:38:08.880Z,10.93
2023-03-23T17:40:35.676Z,11.67
2023-03-23T17:43:02.264Z,7.27
2023-03-23T17:45:28.900Z,10.13
2023-03-23T17:47:55.959Z,8.20
2023-03-23T17:50:23.009Z,7.77
2023-03-23T17:52:49.964Z,6.83
2023-03-23T17:55:16.795Z,6.50
2023-03-23T17:57:44.794Z,6.27
2023-03-23T18:00:12.645Z,5.90
2023-03-23T18:02:39.411Z,6.60
2023-03-23T18:05:08.347Z,6.40
2023-03-23T18:07:35.298Z,5.97
2023-03-23T18:10:01.980Z,5.87
2023-03-23T18:12:28.858Z,5.90
2023-03-23T18:14:58.747Z,5.80
2023-03-23T18:17:26.487Z,6.10
2023-03-23T18:19:53.267Z,6.00
2023-03-23T18:22:19.906Z,6.93
2023-03-23T18:24:46.738Z,5.20
2023-03-23T18:27:13.826Z,5.67
2023-03-23T18:29:40.573Z,5.93
2023-03-23T18:32:08.180Z,7.57
2023-03-23T18:34:36.459Z,7.30
2023-03-23T18:37:03.444Z,6.67
2023-03-23T18:39:32.213Z,6.90
2023-03-23T18:41:58.711Z,8.03
2023-03-23T18:44:25.549Z,7.07
2023-03-23T18:46:52.285Z,7.70
2023-03-23T18:49:18.840Z,7.60
2023-03-23T18:51:45.533Z,7.80
2023-03-23T18:54:13.567Z,7.90
2023-03-23T18:56:40.224Z,7.83
2023-03-23T18:59:07.040Z,8.17
2023-03-23T19:01:33.684Z,7.13
2023-03-23T19:04:00.210Z,7.80
2023-03-23T19:06:27.832Z,5.73
2023-03-23T19:08:54.902Z,5.80
2023-03-23T19:11:25.367Z,6.23
2023-03-23T19:14:01.707Z,6.70
2023-03-23T19:16:34.171Z,6.60
2023-03-23T19:19:02.009Z,7.17
2023-03-23T19:21:31.493Z,7.10
2023-03-23T19:23:58.751Z,6.83
2023-03-23T19:26:38.184Z,6.40
2023-03-23T19:31:35.853Z,7.33
2023-03-23T19:34:02.530Z,7.47
2023-03-23T19:36:29.011Z,8.27
2023-03-23T19:38:57.622Z,7.33
2023-03-23T19:41:27.579Z,7.57
2023-03-23T19:43:54.878Z,7.80
2023-03-23T19:46:21.427Z,10.07
2023-03-23T19:48:48.009Z,9.40
2023-03-23T19:51:18.774Z,7.53
2023-03-23T19:53:45.549Z,7.17
2023-03-23T19:56:21.425Z,7.23
2023-03-23T19:58:48.938Z,7.30
2023-03-23T20:01:16.077Z,8.10
2023-03-23T20:03:43.473Z,11.27
2023-03-23T20:06:12.453Z,12.70
2023-03-23T20:08:43.966Z,10.87
2023-03-23T20:11:17.197Z,10.50
2023-03-23T20:13:44.806Z,11.07
2023-03-23T20:16:11.835Z,10.40
2023-03-23T20:18:38.622Z,11.03
2023-03-23T20:21:10.454Z,10.33
2023-03-23T20:23:38.418Z,10.20
2023-03-23T20:26:14.317Z,10.67
2023-03-23T20:28:42.716Z,9.87
2023-03-23T20:31:23.478Z,8.90
2023-03-23T20:34:00.580Z,8.20
2023-03-23T20:36:40.558Z,8.50
2023-03-23T20:39:13.149Z,8.43
2023-03-23T20:41:40.422Z,9.30
2023-03-23T20:44:14.268Z,8.43
2023-03-23T20:46:42.182Z,8.20
2023-03-23T20:49:10.164Z,10.20
2023-03-23T20:51:37.441Z,10.63
2023-03-23T20:54:06.214Z,10.93
2023-03-23T20:56:33.581Z,11.10
2023-03-23T20:59:08.683Z,9.27
2023-03-23T21:01:35.853Z,8.60
2023-03-23T21:04:03.346Z,10.00
2023-03-23T21:06:31.499Z,8.20
2023-03-23T21:08:58.328Z,10.40
2023-03-23T21:11:26.567Z,13.50
2023-03-23T21:13:53.546Z,11.57
2023-03-23T21:16:20.281Z,10.20
2023-03-23T21:18:47.822Z,8.00
2023-03-23T21:21:18.222Z,9.57
2023-03-23T21:23:52.875Z,7.50
2023-03-23T21:26:22.586Z,7.30
2023-03-23T21:28:50.932Z,8.03
2023-03-23T21:31:18.403Z,10.50
2023-03-23T21:33:44.914Z,9.30
2023-03-23T21:36:11.859Z,9.50
2023-03-23T21:38:39.875Z,9.03
2023-03-23T21:41:09.191Z,9.77
2023-03-23T21:43:36.201Z,9.30
2023-03-23T21:46:05.484Z,8.70
2023-03-23T21:48:33.317Z,8.40
2023-03-23T21:51:08.295Z,7.97
2023-03-23T21:53:36.923Z,7.20
2023-03-23T21:56:06.322Z,6.17
2023-03-23T21:58:33.334Z,7.40
2023-03-23T22:01:01.136Z,7.37
2023-03-23T22:03:32.393Z,7.80
2023-03-23T22:06:00.449Z,6.67
2023-03-23T22:08:28.890Z,7.80
2023-03-23T22:11:03.557Z,7.10
2023-03-23T22:13:31.638Z,8.00
2023-03-23T22:15:59.738Z,7.07
2023-03-23T22:18:26.768Z,6.20
2023-03-23T22:20:53.622Z,6.33
2023-03-23T22:23:20.481Z,5.90
2023-03-23T22:25:47.337Z,6.43
2023-03-23T22:28:14.180Z,7.33
2023-03-23T22:30:40.869Z,7.23
2023-03-23T22:33:08.079Z,7.10
2023-03-23T22:35:34.798Z,7.17
2023-03-23T22:38:03.195Z,7.00
2023-03-23T22:40:31.210Z,6.43
2023-03-23T22:42:58.092Z,6.23
2023-03-23T22:45:26.086Z,6.07
2023-03-23T22:47:53.088Z,6.40
2023-03-23T22:50:21.664Z,5.70
2023-03-23T22:52:48.621Z,5.83
2023-03-23T22:55:15.916Z,5.83
2023-03-23T22:57:42.473Z,6.40
2023-03-23T23:00:14.951Z,6.00
2023-03-23T23:02:42.819Z,6.97
2023-03-23T23:05:11.111Z,6.60
2023-03-23T23:07:38.100Z,7.33
2023-03-23T23:10:05.928Z,7.13
2023-03-23T23:12:35.269Z,6.90
2023-03-23T23:15:04.048Z,7.40
2023-03-23T23:17:32.170Z,6.53
2023-03-23T23:19:59.551Z,7.70
2023-03-23T23:22:26.643Z,6.33
2023-03-23T23:24:53.216Z,6.70
2023-03-23T23:27:20.093Z,6.67
2023-03-23T23:29:47.252Z,7.83
2023-03-23T23:32:13.817Z,7.30
2023-03-23T23:34:41.791Z,7.40
2023-03-23T23:37:09.106Z,6.73
2023-03-23T23:39:38.366Z,8.10
2023-03-23T23:42:05.961Z,8.80
2023-03-23T23:44:32.593Z,7.40
2023-03-23T23:46:59.471Z,7.90
2023-03-23T23:49:28.663Z,7.30
2023-03-23T23:51:55.494Z,5.87
2023-03-23T23:54:22.696Z,6.23
2023-03-23T23:56:50.918Z,6.03
2023-03-23T23:59:17.701Z,5.77
